createdAt,value
2018-06-16T00:00:04.248Z,12.57
2018-06-16T00:05:04.257Z,12.63
2018-06-16T00:10:04.267Z,12.77
2018-06-16T00:15:04.255Z,12.84
2018-06-16T00:20:04.258Z,12.79
2018-06-16T00:25:04.267Z,12.72
2018-06-16T00:30:04.275Z,12.66
2018-06-16T00:35:04.272Z,12.58
2018-06-16T00:40:04.285Z,12.44
2018-06-16T00:45:04.280Z,12.28
2018-06-16T00:50:04.285Z,12.17
2018-06-16T00:55:04.278Z,12.03
2018-06-16T01:00:04.279Z,11.86
2018-06-16T01:05:04.276Z,11.73
2018-06-16T01:10:04.299Z,11.71
2018-06-16T01:15:04.284Z,11.76
2018-06-16T01:20:04.288Z,11.93
2018-06-16T01:25:04.309Z,12.13
2018-06-16T01:30:04.293Z,12.25
2018-06-16T01:35:04.301Z,12.29
2018-06-16T01:40:04.309Z,12.38
2018-06-16T01:45:04.307Z,12.42
2018-06-16T01:50:04.304Z,12.45
2018-06-16T01:55:04.324Z,12.47
2018-06-16T02:00:04.314Z,12.51
2018-06-16T02:05:04.315Z,12.56
2018-06-16T02:10:04.333Z,12.62
2018-06-16T02:15:04.317Z,12.63
2018-06-16T02:20:04.318Z,12.67
2018-06-16T02:25:04.333Z,12.7
2018-06-16T02:30:04.340Z,12.7
2018-06-16T02:35:04.325Z,12.72
2018-06-16T02:40:04.338Z,12.78
2018-06-16T02:45:04.333Z,12.89
2018-06-16T02:50:04.349Z,12.95
2018-06-16T02:55:04.354Z,13.03
2018-06-16T03:00:04.338Z,13.09
2018-06-16T03:05:04.346Z,13.2
2018-06-16T03:10:04.356Z,13.31
2018-06-16T03:15:04.405Z,13.37
2018-06-16T03:20:04.352Z,13.46
2018-06-16T03:25:04.362Z,13.59
2018-06-16T03:30:04.356Z,13.69
2018-06-16T03:35:04.360Z,13.79
2018-06-16T03:40:04.381Z,13.86
2018-06-16T03:45:04.365Z,13.98
2018-06-16T03:50:04.374Z,14.06
2018-06-16T03:55:04.388Z,14.19
2018-06-16T04:00:04.375Z,14.28
2018-06-16T04:05:04.377Z,14.49
2018-06-16T04:10:04.395Z,14.74
2018-06-16T04:15:04.384Z,14.97
2018-06-16T04:20:04.385Z,15.21
2018-06-16T04:25:04.400Z,15.37
2018-06-16T04:30:04.384Z,15.51
2018-06-16T04:35:03.390Z,15.62
2018-06-16T04:40:03.390Z,15.71
2018-06-16T04:45:03.410Z,15.81
2018-06-16T04:50:03.398Z,15.85
2018-06-16T04:55:03.405Z,15.93
2018-06-16T05:00:03.409Z,16.05
2018-06-16T05:05:03.414Z,16.16
2018-06-16T05:10:03.411Z,16.33
2018-06-16T05:15:03.419Z,16.52
2018-06-16T05:20:03.415Z,16.71
2018-06-16T05:25:03.415Z,16.92
2018-06-16T05:30:03.438Z,17.13
2018-06-16T05:35:03.427Z,17.29
2018-06-16T05:40:03.420Z,17.5
2018-06-16T05:45:03.433Z,17.74
2018-06-16T05:50:03.430Z,17.96
2018-06-16T05:55:03.433Z,18.12
2018-06-16T06:00:03.455Z,18.26
2018-06-16T06:05:03.440Z,18.43
2018-06-16T06:10:03.450Z,18.63
2018-06-16T06:15:03.448Z,18.73
2018-06-16T06:20:03.445Z,18.87
2018-06-16T06:25:03.455Z,18.98
2018-06-16T06:30:03.469Z,19.13
2018-06-16T06:35:03.468Z,19.41
2018-06-16T06:40:03.452Z,19.97
2018-06-16T06:45:03.465Z,20.39
2018-06-16T06:50:03.460Z,20.73
2018-06-16T06:55:03.475Z,21.11
2018-06-16T07:00:03.479Z,21.05
2018-06-16T07:05:03.478Z,21.09
2018-06-16T07:10:03.484Z,21.67
2018-06-16T07:15:03.489Z,21.85
2018-06-16T07:20:03.479Z,22.63
2018-06-16T07:25:03.480Z,22.96
2018-06-16T07:30:03.498Z,23.15
2018-06-16T07:35:03.489Z,23.42
2018-06-16T07:40:03.491Z,23.73
2018-06-16T07:45:03.502Z,24.19
2018-06-16T07:50:03.493Z,24.45
2018-06-16T07:55:03.499Z,25.32
2018-06-16T08:00:03.515Z,25.89
2018-06-16T08:05:03.499Z,25.99
2018-06-16T08:10:03.509Z,25.81
2018-06-16T08:15:03.518Z,26.93
2018-06-16T08:20:03.506Z,26.82
2018-06-16T08:25:03.511Z,26.87
2018-06-16T08:30:03.527Z,26.45
2018-06-16T08:35:03.521Z,26.5
2018-06-16T08:40:03.521Z,26.51
2018-06-16T08:45:03.534Z,26.65
2018-06-16T08:50:03.528Z,27.23
2018-06-16T08:55:03.526Z,27.47
2018-06-16T09:00:03.544Z,27.34
2018-06-16T09:05:03.538Z,27.68
2018-06-16T09:10:03.540Z,27.9
2018-06-16T09:15:03.547Z,27.6
2018-06-16T09:20:03.546Z,27.44
2018-06-16T09:25:03.543Z,27.46
2018-06-16T09:30:03.564Z,27.51
2018-06-16T09:35:03.549Z,27.56
2018-06-16T09:40:03.556Z,27.51
2018-06-16T09:45:03.564Z,26.99
2018-06-16T09:50:03.559Z,26.99
2018-06-16T09:55:03.564Z,27.01
2018-06-16T10:00:03.706Z,27.01
2018-06-16T10:05:03.574Z,27.36
2018-06-16T10:10:03.573Z,28.08
2018-06-16T10:15:03.579Z,28.08
2018-06-16T10:20:03.588Z,28.38
2018-06-16T10:25:03.614Z,27.68
2018-06-16T10:30:03.600Z,28.14
2018-06-16T10:35:03.583Z,27.94
2018-06-16T10:40:03.588Z,28.38
2018-06-16T10:45:03.807Z,29.17
2018-06-16T10:50:03.589Z,29.5
2018-06-16T10:55:03.596Z,30.15
2018-06-16T11:00:03.612Z,30.19
2018-06-16T11:05:03.599Z,30.17
2018-06-16T11:10:03.605Z,30.26
2018-06-16T11:15:03.642Z,30.23
2018-06-16T11:20:03.605Z,31.01
2018-06-16T11:25:03.648Z,31.39
2018-06-16T11:30:03.631Z,30.84
2018-06-16T11:35:03.617Z,29.83
2018-06-16T11:40:03.627Z,30.1
2018-06-16T11:45:03.636Z,30.42
2018-06-16T11:50:03.626Z,30.71
2018-06-16T11:55:03.629Z,30.99
2018-06-16T12:00:03.644Z,30.93
2018-06-16T12:05:03.626Z,31.89
2018-06-16T12:10:03.648Z,32.3
2018-06-16T12:15:03.645Z,32.37
2018-06-16T12:20:03.636Z,32.14
2018-06-16T12:25:03.647Z,32.54
2018-06-16T12:30:03.671Z,32.7
2018-06-16T12:35:03.652Z,32.58
2018-06-16T12:40:03.653Z,31.45
2018-06-16T12:45:03.667Z,30.39
2018-06-16T12:50:03.653Z,28.88
2018-06-16T12:55:03.677Z,28.26
2018-06-16T13:00:03.672Z,27.84
2018-06-16T13:05:03.670Z,27.64
2018-06-16T13:10:03.665Z,28.1
2018-06-16T13:15:03.708Z,28.78
2018-06-16T13:20:03.711Z,29.82
2018-06-16T13:25:03.672Z,30.38
2018-06-16T13:30:03.677Z,30.28
2018-06-16T13:35:03.680Z,30.81
2018-06-16T13:40:03.683Z,31.38
2018-06-16T13:45:03.684Z,30.75
2018-06-16T13:50:03.704Z,30.78
2018-06-16T13:55:03.686Z,31.37
2018-06-16T14:00:03.694Z,31.02
2018-06-16T14:05:03.711Z,30.99
2018-06-16T14:10:03.700Z,31.79
2018-06-16T14:15:03.704Z,31.65
2018-06-16T14:20:03.722Z,32.33
2018-06-16T14:25:03.710Z,32.17
2018-06-16T14:30:03.713Z,32
2018-06-16T14:35:03.734Z,32.59
2018-06-16T14:40:03.712Z,33.52
2018-06-16T14:45:03.721Z,34.51
2018-06-16T14:50:03.725Z,33.45
2018-06-16T14:55:03.725Z,32.85
2018-06-16T15:00:03.723Z,31.37
2018-06-16T15:05:03.853Z,31.02
2018-06-16T15:10:03.727Z,31.74
2018-06-16T15:15:03.731Z,30.74
2018-06-16T15:20:03.743Z,30.33
2018-06-16T15:25:03.734Z,30.07
2018-06-16T15:30:03.738Z,29.45
2018-06-16T15:35:03.745Z,28.14
2018-06-16T15:40:03.743Z,27.32
2018-06-16T15:45:03.751Z,26.71
2018-06-16T15:50:03.761Z,26.43
2018-06-16T15:55:03.771Z,26.46
2018-06-16T16:00:03.763Z,26.26
2018-06-16T16:05:03.770Z,26.55
2018-06-16T16:10:03.774Z,26.19
2018-06-16T16:15:03.764Z,26.19
2018-06-16T16:20:03.813Z,27.01
2018-06-16T16:25:03.768Z,27.94
2018-06-16T16:30:03.768Z,28.15
2018-06-16T16:35:03.785Z,27.37
2018-06-16T16:40:03.775Z,26.93
2018-06-16T16:45:03.789Z,26.48
2018-06-16T16:50:03.792Z,26.12
2018-06-16T16:55:03.780Z,25.94
2018-06-16T17:00:03.797Z,25.86
2018-06-16T17:05:03.803Z,25.79
2018-06-16T17:10:03.794Z,25.66
2018-06-16T17:15:03.794Z,25.48
2018-06-16T17:20:03.798Z,25.44
2018-06-16T17:25:03.810Z,25.5
2018-06-16T17:30:03.818Z,25.62
2018-06-16T17:35:03.817Z,25.37
2018-06-16T17:40:03.806Z,25.13
2018-06-16T17:45:03.827Z,24.97
2018-06-16T17:50:03.820Z,24.7
2018-06-16T17:55:03.813Z,24.33
2018-06-16T18:00:03.815Z,24.25
2018-06-16T18:05:03.828Z,24.28
2018-06-16T18:10:03.820Z,24.24
2018-06-16T18:15:03.847Z,24.26
2018-06-16T18:20:03.836Z,24.46
2018-06-16T18:25:03.830Z,24.59
2018-06-16T18:30:03.853Z,24.46
2018-06-16T18:35:03.845Z,24.15
2018-06-16T18:40:03.841Z,23.86
2018-06-16T18:45:03.853Z,23.51
2018-06-16T18:50:03.857Z,23.13
2018-06-16T18:55:03.847Z,22.77
2018-06-16T19:00:03.859Z,22.31
2018-06-16T19:05:03.867Z,21.85
2018-06-16T19:10:03.874Z,21.47
2018-06-16T19:15:03.865Z,21.16
2018-06-16T19:20:03.875Z,20.85
2018-06-16T19:25:03.875Z,20.42
2018-06-16T19:30:03.869Z,20.11
2018-06-16T19:35:03.881Z,19.8
2018-06-16T19:40:03.869Z,19.51
2018-06-16T19:45:03.884Z,19.21
2018-06-16T19:50:03.881Z,18.92
2018-06-16T19:55:03.883Z,18.76
2018-06-16T20:00:03.885Z,18.72
2018-06-16T20:05:03.886Z,18.69
2018-06-16T20:10:03.888Z,18.61
2018-06-16T20:15:03.898Z,18.4
2018-06-16T20:20:03.899Z,18.2
2018-06-16T20:25:03.896Z,18.03
2018-06-16T20:30:03.905Z,17.9
2018-06-16T20:35:03.909Z,17.76
2018-06-16T20:40:03.965Z,17.73
2018-06-16T20:45:03.913Z,17.8
2018-06-16T20:50:03.926Z,17.81
2018-06-16T20:55:03.912Z,17.75
2018-06-16T21:00:03.915Z,17.62
2018-06-16T21:05:03.936Z,17.52
2018-06-16T21:10:03.927Z,17.36
2018-06-16T21:15:03.922Z,17.2
2018-06-16T21:20:03.934Z,17.05
2018-06-16T21:25:03.934Z,16.98
2018-06-16T21:30:03.928Z,16.9
2018-06-16T21:35:03.949Z,16.85
2018-06-16T21:40:03.940Z,16.71
2018-06-16T21:45:03.952Z,16.72
2018-06-16T21:50:03.952Z,16.79
2018-06-16T21:55:03.942Z,17.02
2018-06-16T22:00:03.955Z,17.22
2018-06-16T22:05:03.953Z,17.54
2018-06-16T22:10:03.963Z,18.12
2018-06-16T22:15:03.950Z,18.27
2018-06-16T22:20:03.972Z,18.19
2018-06-16T22:25:03.957Z,18.05
2018-06-16T22:30:03.975Z,17.94
2018-06-16T22:35:03.965Z,17.81
2018-06-16T22:40:03.984Z,17.72
2018-06-16T22:45:03.971Z,17.59
2018-06-16T22:50:04.032Z,17.49
2018-06-16T22:55:03.981Z,17.38
2018-06-16T23:00:03.979Z,17.2
2018-06-16T23:05:03.986Z,17.01
2018-06-16T23:10:04.005Z,16.89
2018-06-16T23:15:03.989Z,16.75
2018-06-16T23:20:03.987Z,16.61
2018-06-16T23:25:04.009Z,16.42
2018-06-16T23:30:03.988Z,16.29
2018-06-16T23:35:03.994Z,16.17
2018-06-16T23:40:04.002Z,16.05
2018-06-16T23:45:04.012Z,15.82
2018-06-16T23:50:04.009Z,15.49
2018-06-16T23:55:04.004Z,15.26
